Old Boston, Texas
Current Conditions -  °F | °C
As of 6:53 AM on Friday 28 Nov 2014 (Local Time) from KTXK Reporting Station
Clear Clear  
Wind Chill: 28°   Ceiling: Unl
Heat Index: 33°   Visibility: 9mi
Dew Point: 30°   Wind: 6mph
Humidity: 89%   Direction: 150°SSE
Pressure: 30.35"   Gusts: NA
Location:  33.4799°N, 94.4582°W
Report Text: KTXK 281253Z 15005KT 9SM CLR 01/M01 A3035 RMK AO2 SLP280 T00061011
Loading
Personal Weather Stations






























Interactive Weather Map New forecast layout! Learn more

10-Day Weather Forecast

Advertisements
Track Severe Weather on mobile